Grassy Key, Florida
Current Conditions -  °F | °C
As of 4:02 AM on Friday 24 Oct 2014 (Local Time) from KMTH Reporting Station
Overcast Overcast  
Wind Chill: 75°   Ceiling: 3100
Heat Index: 75°   Visibility: 10mi
Dew Point: 75°   Wind: 16mph
Humidity: 100%   Direction: 40°NE
Pressure: 29.8"   Gusts: NA
Location:  24.7161°N, 81.0717°W
Report Text: KMTH 240802Z AUTO 04014KT 10SM FEW009 BKN031 OVC070 24/24 A2980 RMK AO2 T02390239 $
Loading
Personal Weather Stations






























Interactive Weather Map
Tropical Storm Tracking
New forecast layout! Learn more

10-Day Weather Forecast

Advertisements
Track Severe Weather on mobile